Orlando, FL (32801)

10:42 AM EDT on August 31, 2016 (GMT -0400)
Lake Como | | Change Station

Elev 154 ft 28.54 °N, 81.35 °W | Updated 14 minutes ago

Light Rain
Light Rain Mist
76.5 °F
Feels Like 76 °F
N
0.0
Wind Variable Wind from NNE

Today
High -- | Low -- °F
--% Chance of Precip.
Yesterday
High -- | Low -- °F
Precip. -- in
Pressure 29.95 in
Visibility 4.0 miles
Clouds Scattered Clouds 1600 ft
Mostly Cloudy 3200 ft
Overcast 9000 ft
Heat Index 76 °F
Dew Point 76 °F
Humidity 99%
Rainfall 0.21 in
Snow Depth Not available.
7:03 AM 7:47 PM
Waning Crescent, 1% visible
SPECI KORL 311422Z 24005KT 4SM -RA BR SCT016 BKN032 OVC090 24/24 A2995 RMK AO2 RAB1355 P0016 T02440239
Pressure 29.95 in
Visibility 4.0 miles
Clouds Scattered Clouds 1600 ft
Mostly Cloudy 3200 ft
Overcast 9000 ft
Heat Index 76 °F
Dew Point 76 °F
Humidity 99%
Rainfall 0.21 in
Snow Depth Not available.
7:03 AM 7:47 PM
Waning Crescent, 1% visible
SPECI KORL 311422Z 24005KT 4SM -RA BR SCT016 BKN032 OVC090 24/24 A2995 RMK AO2 RAB1355 P0016 T02440239

10-Day Weather Forecast

Almanac

Astronomy

Aug. 31, 2016 Rise Set
Actual Time
Civil Twilight
Nautical Twilight
Astronomical Twilight
Moon
Length of Visible Light
Length of Day
Tomorrow will be .
, % of the Moon is Illuminated

Today's Extremes

State Highs State Lows

Community

WunderPhotos

Upload Photos

1,936,093 photos uploaded!

WunderBlog® & News

Nearby

Air Quality

  Air Quality AQ Index Pollutant
Not available.

Snow Depth

Station Depth Elevation

Earthquake Activity

City Distance Mag. Time & Date
Minimum magnitude displayed is 2.5.

Coastal Water Temperatures

Place Temperature

Stations

Nearby Weather Stations

Station Location Temp. Windchill Dew Point Humidity Wind Precip. Elev Updated Type
                   

Watches & Warnings

There are currently no watches in effect.